Time;durP1;ratioP1;P1;durP2;ratioP2;P2;SDS_P1;SDS_P2;PMS_P1;PMS_P2;Temp;Humidity;BMP_temperature;BMP_pressure;BME280_temperature;BME280_humidity;BME280_pressure;Samples;Min_cycle;Max_cycle;Signal;HPM_P1;HPM_P2
2023/03/13 00:01:20;;;;;;;3.20;1.97;;;;;;;3.47;nan;-23913.25;5028800;28;20183;-69
2023/03/13 00:03:45;;;;;;;3.03;2.57;;;;;;;3.60;nan;-23916.84;5013882;28;20176;-67
2023/03/13 00:06:11;;;;;;;3.83;2.00;;;;;;;3.42;nan;-23911.84;5013376;28;20570;-67
2023/03/13 00:08:36;;;;;;;2.17;1.90;;;;;;;3.17;nan;-23904.56;5028696;28;20179;-69
2023/03/13 00:11:08;;;;;;;2.87;2.30;;;;;;;3.46;nan;-23912.97;5013048;28;20183;-69
2023/03/13 00:13:34;;;;;;;3.10;2.47;;;;;;;2.99;nan;-23899.72;5013472;28;20191;-68
2023/03/13 00:16:01;;;;;;;4.03;2.20;;;;;;;3.13;nan;-23903.56;5013340;28;20179;-69
2023/03/13 00:18:27;;;;;;;2.70;2.10;;;;;;;3.34;nan;-23909.56;5013328;28;20176;-68
2023/03/13 00:20:59;;;;;;;1.83;1.73;;;;;;;3.50;nan;-23914.13;5013234;28;20182;-67
2023/03/13 00:23:25;;;;;;;5.93;2.27;;;;;;;3.12;nan;-23903.28;5013849;28;20191;-68
2023/03/13 00:26:02;;;;;;;4.17;2.13;;;;;;;3.34;nan;-23909.56;5013187;28;20703;-68
2023/03/13 00:28:29;;;;;;;2.80;2.50;;;;;;;3.22;nan;-23906.13;5011753;28;20316;-68
2023/03/13 00:31:08;;;;;;;3.00;2.60;;;;;;;2.92;nan;-23897.56;5013208;28;20194;-68
2023/03/13 00:33:45;;;;;;;3.00;2.40;;;;;;;3.22;nan;-23906.00;5011699;28;20579;-67
2023/03/13 00:36:14;;;;;;;2.33;1.93;;;;;;;3.11;nan;-23903.00;5012249;28;20178;-68
2023/03/13 00:38:40;;;;;;;2.47;2.27;;;;;;;3.21;nan;-23905.84;5013188;28;20176;-68
2023/03/13 00:41:13;;;;;;;3.23;2.00;;;;;;;3.08;nan;-23902.28;5012978;28;20206;-68
2023/03/13 00:43:39;;;;;;;2.33;1.93;;;;;;;3.16;nan;-23904.28;5012745;28;20217;-68
2023/03/13 00:46:05;;;;;;;2.33;2.00;;;;;;;2.94;nan;-23898.16;5012668;28;20229;-69
2023/03/13 00:48:32;;;;;;;4.93;1.83;;;;;;;2.80;nan;-23894.16;5012567;28;20187;-69
2023/03/13 00:50:57;;;;;;;2.93;2.57;;;;;;;3.07;nan;-23901.84;5012694;28;20179;-68
2023/03/13 00:53:22;;;;;;;2.53;2.30;;;;;;;2.94;nan;-23898.16;5012743;28;20172;-67
2023/03/13 00:55:57;;;;;;;3.53;2.47;;;;;;;2.85;nan;-23895.72;5012877;28;20184;-68
2023/03/13 00:58:23;;;;;;;3.03;2.40;;;;;;;3.08;nan;-23902.16;5012573;28;20195;-67
2023/03/13 01:00:51;;;;;;;2.27;2.07;;;;;;;2.76;nan;-23893.16;5012681;28;20175;-68
2023/03/13 01:03:16;;;;;;;3.57;2.47;;;;;;;2.66;nan;-23890.44;5012402;28;20179;-68
2023/03/13 01:05:42;;;;;;;2.13;1.70;;;;;;;2.94;nan;-23898.28;5012785;28;20591;-68
2023/03/13 01:08:07;;;;;;;4.50;2.40;;;;;;;2.99;nan;-23899.72;5012871;28;20647;-67
2023/03/13 01:10:34;;;;;;;3.17;2.57;;;;;;;2.66;nan;-23890.31;5012312;28;20184;-69
2023/03/13 01:12:59;;;;;;;2.60;2.40;;;;;;;2.79;nan;-23893.88;5012706;28;20673;-67
2023/03/13 01:15:25;;;;;;;1.97;1.87;;;;;;;2.94;nan;-23898.28;5011363;28;20180;-68
2023/03/13 01:17:50;;;;;;;2.87;2.47;;;;;;;2.39;nan;-23882.75;5011082;28;20607;-67
2023/03/13 01:20:16;;;;;;;2.43;2.23;;;;;;;2.42;nan;-23883.44;5012258;28;20178;-68
2023/03/13 01:22:41;;;;;;;4.20;2.93;;;;;;;1.96;nan;-23870.59;5012646;28;20218;-67
2023/03/13 01:25:07;;;;;;;2.23;2.07;;;;;;;2.26;nan;-23879.03;5012086;28;20181;-68
2023/03/13 01:27:32;;;;;;;3.20;2.73;;;;;;;2.15;nan;-23875.88;5011999;28;20203;-67
2023/03/13 01:29:58;;;;;;;2.70;2.43;;;;;;;2.23;nan;-23878.16;5013885;28;20215;-67
2023/03/13 01:32:23;;;;;;;2.00;1.87;;;;;;;2.04;nan;-23872.75;5011902;28;20182;-67
2023/03/13 01:34:49;;;;;;;3.37;2.83;;;;;;;1.96;nan;-23870.47;5012187;28;20210;-67
2023/03/13 01:37:14;;;;;;;2.57;2.30;;;;;;;2.12;nan;-23875.03;5012045;28;20245;-68
2023/03/13 01:39:39;;;;;;;3.67;2.27;;;;;;;2.02;nan;-23872.16;5012340;28;20182;-68
2023/03/13 01:42:07;;;;;;;3.70;2.50;;;;;;;1.83;nan;-23866.75;5011945;28;20186;-69
2023/03/13 01:44:50;;;;;;;2.30;2.07;;;;;;;1.74;nan;-23864.47;5011188;28;20177;-68
2023/03/13 01:47:15;;;;;;;2.83;2.47;;;;;;;1.48;nan;-23856.88;5012001;28;20212;-68
2023/03/13 01:49:43;;;;;;;3.67;2.40;;;;;;;1.75;nan;-23864.59;5011677;28;20186;-67
2023/03/13 01:52:11;;;;;;;2.93;2.00;;;;;;;1.78;nan;-23865.59;5011739;28;20188;-67
2023/03/13 01:54:44;;;;;;;3.80;1.97;;;;;;;1.13;nan;-23847.03;5009980;28;20219;-68
2023/03/13 01:57:26;;;;;;;3.37;2.33;;;;;;;1.54;nan;-23858.59;5010177;28;20224;-67
2023/03/13 02:00:06;;;;;;;4.87;2.43;;;;;;;1.54;nan;-23858.75;5015394;28;20616;-67
2023/03/13 02:02:33;;;;;;;2.20;2.00;;;;;;;1.58;nan;-23859.88;5031275;28;20222;-68
2023/03/13 02:05:02;;;;;;;2.60;2.40;;;;;;;1.15;nan;-23847.59;5031482;28;20675;-67
2023/03/13 02:07:34;;;;;;;3.13;2.37;;;;;;;1.12;nan;-23846.72;5030979;28;20292;-68
2023/03/13 02:10:00;;;;;;;4.97;2.30;;;;;;;1.34;nan;-23853.16;5030641;28;20183;-67
2023/03/13 02:12:37;;;;;;;5.30;2.83;;;;;;;0.32;nan;-23824.13;5031054;28;20693;-67
2023/03/13 02:15:11;;;;;;;3.40;2.17;;;;;;;0.89;nan;-23840.44;5030638;28;20245;-68
2023/03/13 02:17:37;;;;;;;2.57;2.37;;;;;;;1.13;nan;-23847.16;5030786;28;20630;-68
2023/03/13 02:20:03;;;;;;;2.37;2.17;;;;;;;1.20;nan;-23849.03;5030364;28;20566;-67
2023/03/13 02:22:44;;;;;;;4.57;2.67;;;;;;;1.10;nan;-23846.16;5030826;28;20171;-68
2023/03/13 02:25:22;;;;;;;5.20;2.53;;;;;;;1.09;nan;-23846.03;5031319;28;20203;-68
2023/03/13 02:27:50;;;;;;;3.53;2.60;;;;;;;1.39;nan;-23854.31;5030683;28;20225;-68
2023/03/13 02:30:16;;;;;;;10.77;2.27;;;;;;;1.37;nan;-23853.88;5030851;28;20622;-67
2023/03/13 02:32:42;;;;;;;2.57;2.37;;;;;;;1.24;nan;-23850.16;5030697;28;20184;-69
2023/03/13 02:35:10;;;;;;;8.57;2.70;;;;;;;1.13;nan;-23847.16;5031358;28;20258;-69
2023/03/13 02:37:36;;;;;;;4.43;2.63;;;;;;;1.15;nan;-23847.75;5031093;28;20712;-68
2023/03/13 02:40:08;;;;;;;3.70;2.83;;;;;;;1.05;nan;-23844.72;5030915;28;20179;-68
2023/03/13 02:42:37;;;;;;;9.83;2.63;;;;;;;0.78;nan;-23837.16;5031001;28;20259;-69
2023/03/13 02:45:03;;;;;;;2.40;2.20;;;;;;;0.79;nan;-23837.56;5030593;28;20188;-68
2023/03/13 02:47:28;;;;;;;4.27;2.77;;;;;;;0.77;nan;-23837.00;5029920;28;20222;-68
2023/03/13 02:49:53;;;;;;;2.03;1.87;;;;;;;0.42;nan;-23827.00;5029916;28;20181;-67
2023/03/13 02:52:25;;;;;;;5.00;2.33;;;;;;;0.66;nan;-23833.72;5005014;28;20230;-69
2023/03/13 02:54:55;;;;;;;12.53;2.60;;;;;;;0.43;nan;-23827.41;5009765;28;20245;-67
2023/03/13 02:57:20;;;;;;;3.60;2.33;;;;;;;0.27;nan;-23822.69;5012450;28;20224;-68
2023/03/13 02:59:47;;;;;;;2.17;1.97;;;;;;;0.37;nan;-23825.69;5014312;28;20212;-68
2023/03/13 03:02:12;;;;;;;2.40;1.90;;;;;;;0.61;nan;-23832.44;5015150;28;20179;-68
2023/03/13 03:04:38;;;;;;;3.00;2.40;;;;;;;0.57;nan;-23831.28;5014679;28;20552;-68
2023/03/13 03:07:03;;;;;;;2.60;2.00;;;;;;;0.45;nan;-23827.84;5014908;28;20203;-68
2023/03/13 03:09:29;;;;;;;3.97;2.47;;;;;;;0.25;nan;-23822.13;5014575;28;20212;-68
2023/03/13 03:11:54;;;;;;;3.77;2.13;;;;;;;0.28;nan;-23822.97;5014393;28;20250;-68
2023/03/13 03:14:20;;;;;;;4.17;2.77;;;;;;;0.46;nan;-23828.00;5014428;28;20180;-68
2023/03/13 03:16:45;;;;;;;3.27;2.37;;;;;;;0.36;nan;-23825.28;5014664;28;20595;-68
2023/03/13 03:19:11;;;;;;;4.03;2.23;;;;;;;-0.14;nan;-23811.25;5014105;28;20179;-68
2023/03/13 03:21:37;;;;;;;3.70;1.93;;;;;;;-0.34;nan;-23805.50;5014199;28;20204;-68
2023/03/13 03:24:03;;;;;;;2.90;2.13;;;;;;;-0.18;nan;-23810.09;5012897;28;20179;-67
2023/03/13 03:26:28;;;;;;;4.70;2.73;;;;;;;-0.43;nan;-23802.94;5013920;28;20288;-69
2023/03/13 03:28:53;;;;;;;2.67;2.30;;;;;;;-0.18;nan;-23809.94;5014075;28;20258;-68
2023/03/13 03:31:19;;;;;;;4.07;2.63;;;;;;;-0.12;nan;-23811.81;5014139;28;20170;-67
2023/03/13 03:33:44;;;;;;;2.40;1.90;;;;;;;-0.48;nan;-23801.50;5014295;28;20290;-68
2023/03/13 03:36:16;;;;;;;2.70;2.40;;;;;;;-0.21;nan;-23809.09;5029411;28;20182;-68
2023/03/13 03:38:42;;;;;;;2.77;2.43;;;;;;;-0.35;nan;-23805.22;5014079;28;20167;-68
2023/03/13 03:41:09;;;;;;;4.27;2.07;;;;;;;-0.33;nan;-23805.81;5015588;28;20503;-67
2023/03/13 03:43:35;;;;;;;3.50;2.03;;;;;;;-0.38;nan;-23804.22;5013669;28;20228;-67
2023/03/13 03:46:00;;;;;;;11.03;2.60;;;;;;;-0.65;nan;-23796.63;5013884;28;20199;-69
2023/03/13 03:48:27;;;;;;;2.20;2.00;;;;;;;-0.36;nan;-23804.78;5014029;28;20232;-68
2023/03/13 03:50:52;;;;;;;4.03;2.53;;;;;;;-0.23;nan;-23808.66;5013798;28;20219;-68
2023/03/13 03:53:17;;;;;;;3.27;2.50;;;;;;;-0.48;nan;-23801.66;5014192;28;20530;-68
2023/03/13 03:55:43;;;;;;;3.73;2.70;;;;;;;-0.66;nan;-23796.47;5013541;28;20680;-67
2023/03/13 03:58:09;;;;;;;3.10;2.80;;;;;;;-0.35;nan;-23805.22;5014162;28;20654;-68
2023/03/13 04:00:34;;;;;;;5.10;2.30;;;;;;;0.09;nan;-23817.53;5013674;28;20190;-67
2023/03/13 04:02:59;;;;;;;2.43;2.23;;;;;;;-0.22;nan;-23808.94;5013541;28;20177;-68
2023/03/13 04:05:25;;;;;;;3.80;2.43;;;;;;;-0.22;nan;-23808.94;5013760;28;20210;-67
2023/03/13 04:07:50;;;;;;;6.03;2.73;;;;;;;-0.25;nan;-23808.09;5012781;28;20205;-68
2023/03/13 04:10:16;;;;;;;1.93;1.80;;;;;;;-0.47;nan;-23801.94;5013082;28;20183;-68
2023/03/13 04:12:42;;;;;;;3.33;2.10;;;;;;;-0.21;nan;-23809.22;5012935;28;20259;-69
2023/03/13 04:15:08;;;;;;;2.67;1.77;;;;;;;-0.27;nan;-23807.38;5013684;28;20320;-68
2023/03/13 04:17:33;;;;;;;2.70;2.03;;;;;;;-0.17;nan;-23810.38;5013186;28;20182;-68
2023/03/13 04:19:59;;;;;;;4.07;2.53;;;;;;;-0.26;nan;-23807.66;5013491;28;20179;-68
2023/03/13 04:22:24;;;;;;;2.97;2.07;;;;;;;-0.39;nan;-23804.06;5012191;28;20191;-67
2023/03/13 04:24:50;;;;;;;2.13;1.93;;;;;;;-0.23;nan;-23808.66;4997685;28;20331;-69
2023/03/13 04:27:16;;;;;;;6.27;2.90;;;;;;;-0.62;nan;-23797.50;4999326;28;20236;-68
2023/03/13 04:29:41;;;;;;;2.73;1.90;;;;;;;-0.58;nan;-23798.78;4998636;28;20552;-68
2023/03/13 04:32:07;;;;;;;3.77;2.80;;;;;;;-0.34;nan;-23805.50;4998893;28;20186;-68
2023/03/13 04:34:32;;;;;;;3.37;2.40;;;;;;;-0.31;nan;-23806.38;5014017;28;20670;-68
2023/03/13 04:36:58;;;;;;;3.13;2.20;;;;;;;-0.22;nan;-23808.81;4998794;28;20224;-68
2023/03/13 04:39:24;;;;;;;2.57;2.37;;;;;;;-0.54;nan;-23799.91;4998518;28;20186;-68
2023/03/13 04:41:54;;;;;;;2.77;2.47;;;;;;;-0.37;nan;-23804.50;4997701;28;20198;-68
2023/03/13 04:44:21;;;;;;;2.90;2.27;;;;;;;-0.46;nan;-23802.22;4998303;28;20181;-69
2023/03/13 04:46:47;;;;;;;3.03;1.97;;;;;;;-0.25;nan;-23808.09;4998436;28;20211;-67
2023/03/13 04:49:13;;;;;;;2.53;2.33;;;;;;;-0.30;nan;-23806.66;4998209;28;20193;-68
2023/03/13 04:51:42;;;;;;;3.53;2.47;;;;;;;-0.28;nan;-23807.09;4999207;28;20197;-69
2023/03/13 04:54:08;;;;;;;3.23;2.30;;;;;;;-0.01;nan;-23814.81;4997568;28;20210;-66
2023/03/13 04:56:33;;;;;;;2.83;2.40;;;;;;;0.24;nan;-23821.97;4997374;28;20489;-68
2023/03/13 04:58:59;;;;;;;4.03;2.30;;;;;;;0.19;nan;-23820.41;5012942;28;20187;-68
2023/03/13 05:01:24;;;;;;;3.40;2.77;;;;;;;-0.11;nan;-23812.09;4996376;28;20324;-69
2023/03/13 05:03:50;;;;;;;2.90;2.10;;;;;;;0.27;nan;-23822.69;4998231;28;20194;-68
2023/03/13 05:06:15;;;;;;;3.37;3.07;;;;;;;0.49;nan;-23829.00;4998491;28;20211;-69
2023/03/13 05:08:41;;;;;;;4.97;2.87;;;;;;;0.47;nan;-23828.28;4997890;28;20240;-68
2023/03/13 05:11:06;;;;;;;4.97;2.53;;;;;;;0.83;nan;-23838.72;4997156;28;20187;-69
2023/03/13 05:13:32;;;;;;;3.33;2.77;;;;;;;0.66;nan;-23833.84;4998632;28;20202;-69
2023/03/13 05:15:57;;;;;;;5.80;2.53;;;;;;;0.66;nan;-23833.72;5002727;28;20181;-69
2023/03/13 05:18:23;;;;;;;3.50;2.87;;;;;;;0.50;nan;-23829.28;4998045;28;20176;-68
2023/03/13 05:20:48;;;;;;;3.20;2.43;;;;;;;0.78;nan;-23837.16;4997459;28;20192;-68
2023/03/13 05:23:14;;;;;;;3.47;2.60;;;;;;;0.75;nan;-23836.44;5011509;28;20180;-68
2023/03/13 05:25:39;;;;;;;3.23;2.17;;;;;;;1.09;nan;-23845.88;5011718;28;20191;-69
2023/03/13 05:28:05;;;;;;;3.33;2.53;;;;;;;0.87;nan;-23839.72;5008211;28;20196;-68
2023/03/13 05:30:30;;;;;;;2.10;1.90;;;;;;;1.16;nan;-23847.88;5010681;28;20188;-67
2023/03/13 05:32:55;;;;;;;2.63;2.43;;;;;;;1.20;nan;-23849.03;5011503;28;20674;-70
2023/03/13 05:35:21;;;;;;;4.33;2.40;;;;;;;1.37;nan;-23853.75;5011561;28;20210;-69
2023/03/13 05:37:46;;;;;;;7.53;3.13;;;;;;;1.05;nan;-23844.72;5011552;28;20179;-71
2023/03/13 05:40:12;;;;;;;4.23;2.27;;;;;;;1.37;nan;-23853.75;5011320;28;20579;-68
2023/03/13 05:42:38;;;;;;;3.10;2.07;;;;;;;1.23;nan;-23850.03;5011718;28;20184;-69
2023/03/13 05:45:04;;;;;;;5.70;2.70;;;;;;;1.20;nan;-23849.16;5026793;28;20189;-69
2023/03/13 05:47:30;;;;;;;10.43;3.20;;;;;;;1.49;nan;-23857.31;5011274;28;20205;-70
2023/03/13 05:49:55;;;;;;;7.03;2.73;;;;;;;1.69;nan;-23862.88;5010939;28;20590;-76
2023/03/13 05:52:20;;;;;;;7.20;2.57;;;;;;;1.70;nan;-23863.16;5005473;28;20186;-74
2023/03/13 05:54:46;;;;;;;4.27;3.27;;;;;;;1.85;nan;-23867.31;5011361;28;20564;-75
2023/03/13 05:57:12;;;;;;;5.57;3.30;;;;;;;2.09;nan;-23874.31;5010190;28;20227;-75
2023/03/13 05:59:37;;;;;;;4.27;2.80;;;;;;;2.41;nan;-23883.16;5012065;28;20264;-74
2023/03/13 06:02:04;;;;;;;5.03;3.30;;;;;;;2.30;nan;-23880.03;5026643;28;20178;-77
2023/03/13 06:04:30;;;;;;;3.57;3.03;;;;;;;2.62;nan;-23889.31;5011442;28;20669;-75
2023/03/13 06:06:55;;;;;;;3.57;2.87;;;;;;;2.54;nan;-23887.03;5011565;28;20195;-74
2023/03/13 06:09:20;;;;;;;4.33;3.03;;;;;;;2.53;nan;-23886.75;5010763;28;20211;-75
2023/03/13 06:11:46;;;;;;;6.83;3.40;;;;;;;2.63;nan;-23889.44;5009907;28;20191;-75
2023/03/13 06:14:11;;;;;;;4.70;3.37;;;;;;;3.10;nan;-23902.84;5010049;28;20214;-75
2023/03/13 06:16:37;;;;;;;6.23;3.73;;;;;;;3.08;nan;-23902.28;5010683;28;20168;-76
2023/03/13 06:19:02;;;;;;;4.33;3.57;;;;;;;3.28;nan;-23907.72;5010504;28;20655;-77
2023/03/13 06:21:28;;;;;;;4.53;3.37;;;;;;;3.36;nan;-23910.13;5009674;28;20651;-75
2023/03/13 06:23:54;;;;;;;3.83;3.27;;;;;;;3.76;nan;-23921.25;5011079;28;20172;-76
2023/03/13 06:26:20;;;;;;;5.73;4.13;;;;;;;3.85;nan;-23923.94;5011580;28;20196;-74
2023/03/13 06:28:46;;;;;;;3.63;2.90;;;;;;;3.88;nan;-23924.81;5010457;28;20199;-75
2023/03/13 06:31:11;;;;;;;6.77;3.40;;;;;;;4.06;nan;-23929.66;5013011;28;20674;-75
2023/03/13 06:33:37;;;;;;;3.23;2.80;;;;;;;4.06;nan;-23929.78;5030746;28;20544;-74
2023/03/13 06:36:03;;;;;;;5.37;3.33;;;;;;;4.47;nan;-23941.19;5013855;28;20266;-74
2023/03/13 06:38:29;;;;;;;6.53;3.30;;;;;;;4.56;nan;-23943.75;5015386;28;20175;-76
2023/03/13 06:40:55;;;;;;;5.73;3.17;;;;;;;4.12;nan;-23931.34;5015165;28;20195;-74
2023/03/13 06:43:20;;;;;;;4.20;3.53;;;;;;;4.64;nan;-23946.03;5015565;28;20567;-75
2023/03/13 06:45:46;;;;;;;4.37;3.33;;;;;;;4.41;nan;-23939.63;5015369;28;20662;-74
2023/03/13 06:48:12;;;;;;;3.37;2.60;;;;;;;4.95;nan;-23954.84;5014532;28;20207;-75
2023/03/13 06:50:38;;;;;;;5.53;3.60;;;;;;;4.89;nan;-23953.13;5016142;28;20176;-75
2023/03/13 06:53:04;;;;;;;4.10;3.17;;;;;;;5.03;nan;-23956.97;5013907;28;20635;-74
2023/03/13 06:55:29;;;;;;;8.00;4.03;;;;;;;5.15;nan;-23960.41;5030345;28;20195;-74
2023/03/13 06:57:55;;;;;;;10.73;4.53;;;;;;;5.00;nan;-23956.25;5030828;28;20318;-73
2023/03/13 07:00:21;;;;;;;3.00;2.33;;;;;;;5.33;nan;-23965.50;5014756;28;20647;-75
2023/03/13 07:02:46;;;;;;;6.30;3.57;;;;;;;5.45;nan;-23968.78;5014999;28;20192;-75
2023/03/13 07:05:13;;;;;;;4.47;3.10;;;;;;;5.84;nan;-23979.88;5015050;28;20199;-75
2023/03/13 07:07:39;;;;;;;3.80;2.80;;;;;;;5.53;nan;-23971.06;5014883;28;20238;-76
2023/03/13 07:10:06;;;;;;;4.80;2.90;;;;;;;5.56;nan;-23971.91;5015278;28;20624;-74
2023/03/13 07:12:31;;;;;;;5.80;3.53;;;;;;;6.02;nan;-23984.97;5013442;28;20180;-76
2023/03/13 07:14:56;;;;;;;3.60;3.20;;;;;;;5.76;nan;-23977.75;5015450;28;20305;-74
2023/03/13 07:17:22;;;;;;;4.00;3.57;;;;;;;5.89;nan;-23981.16;5029940;28;20213;-75
2023/03/13 07:19:47;;;;;;;5.17;3.33;;;;;;;6.33;nan;-23993.50;5014757;28;20286;-74
2023/03/13 07:22:12;;;;;;;3.87;3.17;;;;;;;6.47;nan;-23997.47;5014121;28;20222;-74
2023/03/13 07:24:38;;;;;;;10.07;4.50;;;;;;;6.25;nan;-23991.22;5015248;28;20263;-75
2023/03/13 07:27:03;;;;;;;4.50;3.53;;;;;;;6.78;nan;-24006.13;5014542;28;20262;-74
2023/03/13 07:29:29;;;;;;;7.33;3.97;;;;;;;6.63;nan;-24002.03;5014504;28;20195;-75
2023/03/13 07:31:55;;;;;;;4.23;3.60;;;;;;;6.67;nan;-24003.16;5014266;28;20183;-74
2023/03/13 07:34:20;;;;;;;5.10;3.57;;;;;;;6.96;nan;-24011.38;5007658;28;20194;-74
2023/03/13 07:36:45;;;;;;;5.10;3.87;;;;;;;6.91;nan;-24009.81;5015734;28;20613;-75
2023/03/13 07:39:11;;;;;;;6.50;4.07;;;;;;;7.24;nan;-24019.19;5013545;28;20177;-75
2023/03/13 07:41:37;;;;;;;5.13;3.60;;;;;;;7.17;nan;-24017.06;5027113;28;20215;-69
2023/03/13 07:44:02;;;;;;;5.37;3.93;;;;;;;7.64;nan;-24030.38;5012624;28;20191;-71
2023/03/13 07:46:28;;;;;;;6.37;4.10;;;;;;;7.68;nan;-24031.38;5045627;28;20200;-70
2023/03/13 07:48:54;;;;;;;6.40;3.83;;;;;;;7.33;nan;-24021.59;5013419;28;20286;-71
2023/03/13 07:51:23;;;;;;;4.17;3.03;;;;;;;7.67;nan;-24031.25;5013678;28;20175;-69
2023/03/13 07:53:50;;;;;;;5.20;3.70;;;;;;;7.90;nan;-24037.75;5014027;28;20284;-69
2023/03/13 07:56:18;;;;;;;5.17;3.10;;;;;;;7.64;nan;-24030.38;5013725;28;20640;-72
2023/03/13 07:58:44;;;;;;;5.23;3.67;;;;;;;7.69;nan;-24031.66;5013386;28;20619;-71
2023/03/13 08:01:11;;;;;;;5.13;2.70;;;;;;;8.06;nan;-24042.00;5014093;28;20644;-69
2023/03/13 08:03:37;;;;;;;18.73;3.37;;;;;;;8.20;nan;-24045.97;5013347;28;20572;-71
2023/03/13 08:06:15;;;;;;;5.53;3.17;;;;;;;8.15;nan;-24044.56;5013110;28;20211;-70
2023/03/13 08:08:41;;;;;;;3.87;2.97;;;;;;;8.46;nan;-24053.34;5013737;28;20183;-71
2023/03/13 08:11:15;;;;;;;3.53;2.73;;;;;;;8.27;nan;-24047.94;5013208;28;20260;-71
2023/03/13 08:13:42;;;;;;;4.33;3.00;;;;;;;8.86;nan;-24064.66;5013395;28;20272;-69
2023/03/13 08:16:10;;;;;;;3.87;2.70;;;;;;;9.07;nan;-24070.31;5013410;28;20183;-68
2023/03/13 08:18:38;;;;;;;3.30;2.80;;;;;;;8.88;nan;-24064.94;5013026;28;20566;-70
2023/03/13 08:21:06;;;;;;;3.67;2.73;;;;;;;9.27;nan;-24075.97;5013862;28;20175;-69
2023/03/13 08:23:32;;;;;;;4.97;3.10;;;;;;;9.18;nan;-24073.56;5013688;28;20265;-69
2023/03/13 08:26:13;;;;;;;5.77;3.30;;;;;;;9.22;nan;-24074.69;5013120;28;20274;-69
2023/03/13 08:28:39;;;;;;;6.23;3.57;;;;;;;9.51;nan;-24082.75;5012924;28;20203;-71
2023/03/13 08:31:13;;;;;;;4.63;3.17;;;;;;;9.81;nan;-24090.94;5013085;28;20187;-73
2023/03/13 08:33:39;;;;;;;3.93;2.60;;;;;;;9.72;nan;-24088.53;5013648;28;20246;-68
2023/03/13 08:36:27;;;;;;;3.90;3.07;;;;;;;10.08;nan;-24098.56;5013635;28;20172;-72
2023/03/13 08:38:54;;;;;;;3.40;2.73;;;;;;;10.04;nan;-24097.44;5012791;28;20263;-70
2023/03/13 08:41:23;;;;;;;4.37;3.10;;;;;;;10.22;nan;-24102.38;5012121;28;20678;-69
2023/03/13 08:43:52;;;;;;;4.73;2.83;;;;;;;10.09;nan;-24098.84;5012830;28;20172;-70
2023/03/13 08:46:20;;;;;;;3.60;2.50;;;;;;;10.16;nan;-24100.84;5012216;28;20200;-69
2023/03/13 08:48:50;;;;;;;4.05;2.90;;;;;;;9.93;nan;-24094.47;5010654;28;20211;-71
2023/03/13 08:51:16;;;;;;;4.80;3.33;;;;;;;9.95;nan;-24094.91;5013262;28;20231;-68
2023/03/13 08:53:43;;;;;;;4.77;2.47;;;;;;;10.08;nan;-24098.72;5012473;28;20211;-70
2023/03/13 08:56:11;;;;;;;2.47;2.27;;;;;;;10.30;nan;-24104.66;5013008;28;20279;-67
2023/03/13 08:58:37;;;;;;;4.03;2.80;;;;;;;10.10;nan;-24099.13;5012988;28;20184;-70
2023/03/13 09:01:09;;;;;;;3.55;2.80;;;;;;;10.56;nan;-24112.13;5012874;28;20191;-70
2023/03/13 09:03:35;;;;;;;4.78;3.33;;;;;;;10.81;nan;-24118.91;5013137;28;20183;-70
2023/03/13 09:06:01;;;;;;;6.80;3.35;;;;;;;10.69;nan;-24115.66;5012952;28;20195;-69
2023/03/13 09:08:28;;;;;;;3.97;3.05;;;;;;;10.54;nan;-24111.56;5013433;28;20290;-71
2023/03/13 09:11:03;;;;;;;4.20;2.85;;;;;;;10.62;nan;-24113.69;5012844;28;20168;-69
2023/03/13 09:13:30;;;;;;;3.72;2.65;;;;;;;10.84;nan;-24119.75;5012760;28;20172;-70
2023/03/13 09:15:57;;;;;;;3.88;3.00;;;;;;;10.86;nan;-24120.44;5044085;28;20717;-72
2023/03/13 09:18:23;;;;;;;3.28;2.30;;;;;;;10.85;nan;-24120.16;5011137;28;20183;-68
2023/03/13 09:20:49;;;;;;;3.90;2.97;;;;;;;11.25;nan;-24131.16;5012353;28;20179;-68
2023/03/13 09:23:14;;;;;;;3.60;2.60;;;;;;;11.06;nan;-24125.94;5012336;28;20190;-69
2023/03/13 09:25:40;;;;;;;2.90;2.30;;;;;;;10.87;nan;-24120.59;5012301;28;20282;-70
2023/03/13 09:28:06;;;;;;;2.53;2.22;;;;;;;10.74;nan;-24116.91;5012363;28;20184;-67
2023/03/13 09:30:31;;;;;;;2.83;2.42;;;;;;;10.16;nan;-24100.84;5012274;28;20176;-69
2023/03/13 09:32:56;;;;;;;3.13;2.20;;;;;;;10.33;nan;-24105.63;5012495;28;20207;-69
2023/03/13 09:35:22;;;;;;;3.10;2.55;;;;;;;11.02;nan;-24124.81;5012065;28;20185;-69
2023/03/13 09:37:47;;;;;;;3.13;2.80;;;;;;;11.24;nan;-24131.03;5012719;28;20164;-69
2023/03/13 09:40:16;;;;;;;3.67;2.58;;;;;;;11.20;nan;-24129.88;5012388;28;20180;-69
2023/03/13 09:42:49;;;;;;;4.32;2.88;;;;;;;11.61;nan;-24141.16;5012179;28;20176;-72
2023/03/13 09:45:37;;;;;;;3.25;2.60;;;;;;;11.68;nan;-24143.28;5012155;28;20172;-68
2023/03/13 09:48:31;;;;;;;3.80;2.83;;;;;;;11.36;nan;-24134.25;5011524;28;20286;-70
2023/03/13 09:51:18;;;;;;;6.15;2.75;;;;;;;11.72;nan;-24144.41;5012289;28;20160;-69
2023/03/13 09:53:57;;;;;;;4.00;2.95;;;;;;;11.92;nan;-24149.91;5012220;28;20199;-71
2023/03/13 09:56:28;;;;;;;10.43;3.45;;;;;;;12.06;nan;-24153.84;5039491;28;20266;-70
2023/03/13 09:59:00;;;;;;;3.50;2.75;;;;;;;11.88;nan;-24148.91;5011831;28;20323;-68
2023/03/13 10:01:28;;;;;;;11.77;3.28;;;;;;;11.62;nan;-24141.44;5012423;28;20176;-69
2023/03/13 10:04:00;;;;;;;5.75;3.13;;;;;;;10.45;nan;-24109.03;5012079;28;20286;-69
2023/03/13 10:06:28;;;;;;;3.85;2.85;;;;;;;10.73;nan;-24116.63;4991752;28;20197;-68
2023/03/13 10:08:56;;;;;;;3.97;2.40;;;;;;;11.53;nan;-24139.19;4992090;28;20176;-69
2023/03/13 10:11:28;;;;;;;2.72;2.20;;;;;;;11.44;nan;-24136.50;4991993;28;20271;-71
2023/03/13 10:14:11;;;;;;;3.95;2.50;;;;;;;11.66;nan;-24142.72;4992855;28;20175;-70
2023/03/13 10:16:43;;;;;;;3.30;2.17;;;;;;;11.38;nan;-24134.81;4992289;28;20664;-70
2023/03/13 10:19:16;;;;;;;3.17;2.42;;;;;;;11.67;nan;-24142.84;4992240;28;20216;-69
2023/03/13 10:21:46;;;;;;;2.70;2.30;;;;;;;11.17;nan;-24128.91;4994415;28;20228;-69
2023/03/13 10:24:37;;;;;;;3.88;2.47;;;;;;;11.31;nan;-24133.00;4993725;28;20176;-69
2023/03/13 10:27:03;;;;;;;2.30;2.10;;;;;;;11.50;nan;-24138.22;4995822;28;20251;-68
2023/03/13 10:29:30;;;;;;;3.72;2.58;;;;;;;11.59;nan;-24140.75;4996721;28;20642;-69
2023/03/13 10:32:04;;;;;;;3.25;2.70;;;;;;;11.55;nan;-24139.63;4993492;28;20181;-70
2023/03/13 10:34:58;;;;;;;2.72;2.30;;;;;;;11.13;nan;-24127.78;4991647;28;20169;-69
2023/03/13 10:37:30;;;;;;;3.05;2.33;;;;;;;11.77;nan;-24145.81;4991401;28;20275;-69
2023/03/13 10:40:26;;;;;;;2.95;2.45;;;;;;;11.32;nan;-24133.13;4991628;28;20649;-69
2023/03/13 10:42:58;;;;;;;3.67;2.20;;;;;;;11.24;nan;-24131.03;4995709;28;20201;-70
2023/03/13 10:45:24;;;;;;;2.35;2.10;;;;;;;11.26;nan;-24131.44;4991761;28;20165;-69
2023/03/13 10:47:54;;;;;;;2.97;2.30;;;;;;;11.93;nan;-24150.19;4991672;28;20304;-70
2023/03/13 10:50:24;;;;;;;2.20;1.83;;;;;;;12.19;nan;-24157.38;4991999;28;20173;-68
2023/03/13 10:52:50;;;;;;;3.83;2.55;;;;;;;12.17;nan;-24156.78;4991432;28;20188;-70
2023/03/13 10:55:21;;;;;;;4.50;2.42;;;;;;;11.80;nan;-24146.53;4991277;28;20679;-68
2023/03/13 10:58:05;;;;;;;2.72;2.00;;;;;;;11.30;nan;-24132.72;4991503;28;20315;-68
2023/03/13 11:00:39;;;;;;;2.92;2.10;;;;;;;11.16;nan;-24128.75;4991977;28;20533;-71
2023/03/13 11:03:30;;;;;;;3.65;2.40;;;;;;;11.40;nan;-24135.53;4991645;28;20255;-70
2023/03/13 11:06:01;;;;;;;2.13;1.90;;;;;;;11.40;nan;-24135.53;4992147;28;20524;-67
2023/03/13 11:08:33;;;;;;;2.45;2.05;;;;;;;11.48;nan;-24137.78;4991630;28;20177;-69
2023/03/13 11:11:01;;;;;;;3.92;2.38;;;;;;;12.08;nan;-24154.25;4991970;28;20231;-70
2023/03/13 11:13:35;;;;;;;2.63;1.90;;;;;;;11.81;nan;-24146.94;4991295;28;20616;-69
2023/03/13 11:16:10;;;;;;;2.88;2.55;;;;;;;11.27;nan;-24131.72;4991466;28;20195;-69
2023/03/13 11:18:57;;;;;;;2.42;2.22;;;;;;;11.65;nan;-24142.28;4994197;28;20191;-68
2023/03/13 11:21:41;;;;;;;4.00;2.15;;;;;;;11.53;nan;-24139.19;4995211;28;20640;-70
2023/03/13 11:24:14;;;;;;;2.33;2.08;;;;;;;11.66;nan;-24142.56;5026935;28;20177;-68
2023/03/13 11:26:48;;;;;;;2.38;2.15;;;;;;;11.62;nan;-24141.59;4994940;28;20555;-69
2023/03/13 11:29:36;;;;;;;3.38;2.45;;;;;;;12.03;nan;-24152.84;4995089;28;20165;-68
2023/03/13 11:32:12;;;;;;;3.75;2.40;;;;;;;11.23;nan;-24130.75;4996582;28;20223;-67
2023/03/13 11:34:51;;;;;;;4.60;2.70;;;;;;;12.17;nan;-24156.94;4994879;28;20165;-69
2023/03/13 11:37:18;;;;;;;2.10;1.90;;;;;;;11.80;nan;-24146.66;4995593;28;20165;-70
2023/03/13 11:40:05;;;;;;;2.30;1.98;;;;;;;12.06;nan;-24153.69;5010457;28;20498;-69
2023/03/13 11:42:58;;;;;;;3.65;2.15;;;;;;;12.25;nan;-24159.06;5011482;28;20172;-71
2023/03/13 11:45:35;;;;;;;3.58;2.35;;;;;;;12.15;nan;-24156.25;5004260;28;20208;-71
2023/03/13 11:48:13;;;;;;;2.25;2.05;;;;;;;12.05;nan;-24153.41;5013028;28;20195;-71
2023/03/13 11:50:56;;;;;;;3.45;2.40;;;;;;;11.79;nan;-24146.25;5013078;28;20179;-70
2023/03/13 11:53:44;;;;;;;3.40;2.53;;;;;;;11.58;nan;-24140.31;5010770;28;20191;-70